sensor_id;sensor_type;location;lat;lon;timestamp;P1;durP1;ratioP1;P2;durP2;ratioP2
63112;SDS011;49206;48.020;21.378;2022-09-24T00:00:39;15.50;;;7.65;;
63112;SDS011;49206;48.020;21.378;2022-09-24T00:01:42;16.13;;;8.00;;
63112;SDS011;49206;48.020;21.378;2022-09-24T00:02:44;13.57;;;8.85;;
63112;SDS011;49206;48.020;21.378;2022-09-24T00:03:51;14.73;;;7.82;;
63112;SDS011;49206;48.020;21.378;2022-09-24T00:04:57;16.42;;;8.57;;
63112;SDS011;49206;48.020;21.378;2022-09-24T00:06:01;13.45;;;8.98;;
63112;SDS011;49206;48.020;21.378;2022-09-24T00:07:04;13.45;;;8.35;;
63112;SDS011;49206;48.020;21.378;2022-09-24T00:08:07;14.63;;;9.88;;
63112;SDS011;49206;48.020;21.378;2022-09-24T00:09:13;14.82;;;9.18;;
63112;SDS011;49206;48.020;21.378;2022-09-24T00:10:18;12.32;;;8.88;;
63112;SDS011;49206;48.020;21.378;2022-09-24T00:11:21;15.52;;;9.05;;
63112;SDS011;49206;48.020;21.378;2022-09-24T00:12:25;15.93;;;9.85;;
63112;SDS011;49206;48.020;21.378;2022-09-24T00:13:29;14.90;;;9.48;;
63112;SDS011;49206;48.020;21.378;2022-09-24T00:14:32;14.27;;;10.32;;
63112;SDS011;49206;48.020;21.378;2022-09-24T00:15:36;16.25;;;9.73;;
63112;SDS011;49206;48.020;21.378;2022-09-24T00:16:39;16.42;;;9.35;;
63112;SDS011;49206;48.020;21.378;2022-09-24T00:17:43;18.58;;;9.77;;
63112;SDS011;49206;48.020;21.378;2022-09-24T00:18:46;14.27;;;8.98;;
63112;SDS011;49206;48.020;21.378;2022-09-24T00:19:48;13.75;;;8.32;;
63112;SDS011;49206;48.020;21.378;2022-09-24T00:20:51;13.57;;;8.73;;
63112;SDS011;49206;48.020;21.378;2022-09-24T00:21:53;13.88;;;9.15;;
63112;SDS011;49206;48.020;21.378;2022-09-24T00:22:56;15.35;;;9.70;;
63112;SDS011;49206;48.020;21.378;2022-09-24T00:24:05;14.50;;;8.60;;
63112;SDS011;49206;48.020;21.378;2022-09-24T00:25:38;13.35;;;8.57;;
63112;SDS011;49206;48.020;21.378;2022-09-24T00:27:01;14.40;;;9.05;;
63112;SDS011;49206;48.020;21.378;2022-09-24T00:28:04;15.82;;;9.38;;
63112;SDS011;49206;48.020;21.378;2022-09-24T00:29:08;15.27;;;8.90;;
63112;SDS011;49206;48.020;21.378;2022-09-24T00:30:12;14.68;;;9.60;;
63112;SDS011;49206;48.020;21.378;2022-09-24T00:31:14;15.38;;;8.73;;
63112;SDS011;49206;48.020;21.378;2022-09-24T00:32:16;16.05;;;9.10;;
63112;SDS011;49206;48.020;21.378;2022-09-24T00:33:19;14.63;;;9.00;;
63112;SDS011;49206;48.020;21.378;2022-09-24T00:34:22;16.23;;;9.90;;
63112;SDS011;49206;48.020;21.378;2022-09-24T00:35:25;15.35;;;8.80;;
63112;SDS011;49206;48.020;21.378;2022-09-24T00:36:27;16.13;;;10.18;;
63112;SDS011;49206;48.020;21.378;2022-09-24T00:37:30;13.75;;;8.93;;
63112;SDS011;49206;48.020;21.378;2022-09-24T00:38:32;15.80;;;9.63;;
63112;SDS011;49206;48.020;21.378;2022-09-24T00:39:35;14.65;;;9.70;;
63112;SDS011;49206;48.020;21.378;2022-09-24T00:40:37;13.85;;;9.20;;
63112;SDS011;49206;48.020;21.378;2022-09-24T00:41:40;14.73;;;8.88;;
63112;SDS011;49206;48.020;21.378;2022-09-24T00:42:46;13.60;;;9.27;;
63112;SDS011;49206;48.020;21.378;2022-09-24T00:43:51;16.00;;;9.80;;
63112;SDS011;49206;48.020;21.378;2022-09-24T00:44:55;14.60;;;10.05;;
63112;SDS011;49206;48.020;21.378;2022-09-24T00:47:12;14.60;;;9.20;;
63112;SDS011;49206;48.020;21.378;2022-09-24T00:48:18;19.55;;;10.82;;
63112;SDS011;49206;48.020;21.378;2022-09-24T00:49:20;14.55;;;9.77;;
63112;SDS011;49206;48.020;21.378;2022-09-24T00:51:27;15.55;;;9.77;;
63112;SDS011;49206;48.020;21.378;2022-09-24T00:52:36;16.35;;;9.75;;
63112;SDS011;49206;48.020;21.378;2022-09-24T00:53:41;14.77;;;9.45;;
63112;SDS011;49206;48.020;21.378;2022-09-24T00:54:46;15.20;;;9.85;;
63112;SDS011;49206;48.020;21.378;2022-09-24T00:55:50;16.33;;;9.82;;
63112;SDS011;49206;48.020;21.378;2022-09-24T00:56:56;14.25;;;8.95;;
63112;SDS011;49206;48.020;21.378;2022-09-24T00:58:00;18.98;;;9.25;;
63112;SDS011;49206;48.020;21.378;2022-09-24T00:59:05;15.10;;;9.55;;
63112;SDS011;49206;48.020;21.378;2022-09-24T01:00:12;13.40;;;8.63;;
63112;SDS011;49206;48.020;21.378;2022-09-24T01:01:15;17.65;;;9.70;;
63112;SDS011;49206;48.020;21.378;2022-09-24T01:02:19;15.15;;;9.60;;
63112;SDS011;49206;48.020;21.378;2022-09-24T01:03:22;16.58;;;9.27;;
63112;SDS011;49206;48.020;21.378;2022-09-24T01:04:26;12.90;;;8.32;;
63112;SDS011;49206;48.020;21.378;2022-09-24T01:05:29;14.93;;;8.88;;
63112;SDS011;49206;48.020;21.378;2022-09-24T01:06:32;14.15;;;9.82;;
63112;SDS011;49206;48.020;21.378;2022-09-24T01:07:35;16.27;;;9.30;;
63112;SDS011;49206;48.020;21.378;2022-09-24T01:08:38;15.02;;;9.60;;
63112;SDS011;49206;48.020;21.378;2022-09-24T01:09:41;15.55;;;9.20;;
63112;SDS011;49206;48.020;21.378;2022-09-24T01:14:06;14.38;;;9.18;;
63112;SDS011;49206;48.020;21.378;2022-09-24T01:15:13;13.52;;;8.75;;
63112;SDS011;49206;48.020;21.378;2022-09-24T01:16:44;16.52;;;8.77;;
63112;SDS011;49206;48.020;21.378;2022-09-24T01:17:55;15.35;;;8.73;;
63112;SDS011;49206;48.020;21.378;2022-09-24T01:20:50;14.52;;;8.98;;
63112;SDS011;49206;48.020;21.378;2022-09-24T01:22:11;13.82;;;8.70;;
63112;SDS011;49206;48.020;21.378;2022-09-24T01:26:40;13.10;;;8.25;;
63112;SDS011;49206;48.020;21.378;2022-09-24T01:30:43;17.45;;;10.00;;
63112;SDS011;49206;48.020;21.378;2022-09-24T01:31:52;16.48;;;9.88;;
63112;SDS011;49206;48.020;21.378;2022-09-24T01:33:19;13.98;;;9.18;;
63112;SDS011;49206;48.020;21.378;2022-09-24T01:34:24;16.02;;;9.70;;
63112;SDS011;49206;48.020;21.378;2022-09-24T01:35:32;16.35;;;9.73;;
63112;SDS011;49206;48.020;21.378;2022-09-24T01:36:44;16.33;;;9.90;;
63112;SDS011;49206;48.020;21.378;2022-09-24T01:37:50;18.30;;;9.65;;
63112;SDS011;49206;48.020;21.378;2022-09-24T01:38:57;15.23;;;9.60;;
63112;SDS011;49206;48.020;21.378;2022-09-24T01:40:02;15.45;;;9.45;;
63112;SDS011;49206;48.020;21.378;2022-09-24T01:41:08;16.40;;;8.95;;
63112;SDS011;49206;48.020;21.378;2022-09-24T01:42:13;16.33;;;9.15;;
63112;SDS011;49206;48.020;21.378;2022-09-24T01:43:19;17.52;;;9.90;;
63112;SDS011;49206;48.020;21.378;2022-09-24T01:44:23;16.25;;;9.30;;
63112;SDS011;49206;48.020;21.378;2022-09-24T01:45:26;13.70;;;9.82;;
63112;SDS011;49206;48.020;21.378;2022-09-24T01:46:33;16.05;;;9.75;;
63112;SDS011;49206;48.020;21.378;2022-09-24T01:47:39;14.35;;;8.98;;
63112;SDS011;49206;48.020;21.378;2022-09-24T01:48:42;14.27;;;9.27;;
63112;SDS011;49206;48.020;21.378;2022-09-24T01:49:45;15.52;;;9.43;;
63112;SDS011;49206;48.020;21.378;2022-09-24T01:50:57;14.20;;;9.48;;
63112;SDS011;49206;48.020;21.378;2022-09-24T01:52:04;13.25;;;8.95;;
63112;SDS011;49206;48.020;21.378;2022-09-24T01:53:20;14.38;;;10.05;;
63112;SDS011;49206;48.020;21.378;2022-09-24T01:54:31;13.40;;;9.00;;
63112;SDS011;49206;48.020;21.378;2022-09-24T01:55:42;17.52;;;9.07;;
63112;SDS011;49206;48.020;21.378;2022-09-24T01:56:52;13.45;;;8.93;;
63112;SDS011;49206;48.020;21.378;2022-09-24T01:58:06;14.63;;;9.68;;
63112;SDS011;49206;48.020;21.378;2022-09-24T01:59:16;12.40;;;8.75;;
63112;SDS011;49206;48.020;21.378;2022-09-24T02:00:23;14.90;;;9.15;;
63112;SDS011;49206;48.020;21.378;2022-09-24T02:01:37;18.17;;;9.65;;
63112;SDS011;49206;48.020;21.378;2022-09-24T02:03:05;15.45;;;10.00;;
63112;SDS011;49206;48.020;21.378;2022-09-24T02:04:12;15.43;;;9.15;;
63112;SDS011;49206;48.020;21.378;2022-09-24T02:07:38;15.05;;;9.10;;
63112;SDS011;49206;48.020;21.378;2022-09-24T02:08:46;12.68;;;8.88;;
63112;SDS011;49206;48.020;21.378;2022-09-24T02:09:49;15.02;;;9.18;;
63112;SDS011;49206;48.020;21.378;2022-09-24T02:10:56;13.57;;;8.95;;
63112;SDS011;49206;48.020;21.378;2022-09-24T02:12:33;17.10;;;8.85;;
63112;SDS011;49206;48.020;21.378;2022-09-24T02:14:53;14.80;;;9.27;;
63112;SDS011;49206;48.020;21.378;2022-09-24T02:16:00;15.60;;;9.40;;
63112;SDS011;49206;48.020;21.378;2022-09-24T02:17:06;13.27;;;8.93;;
63112;SDS011;49206;48.020;21.378;2022-09-24T02:18:11;14.18;;;9.25;;
63112;SDS011;49206;48.020;21.378;2022-09-24T02:19:20;15.30;;;9.88;;
63112;SDS011;49206;48.020;21.378;2022-09-24T02:20:26;15.75;;;10.05;;
63112;SDS011;49206;48.020;21.378;2022-09-24T02:21:30;18.48;;;10.80;;
63112;SDS011;49206;48.020;21.378;2022-09-24T02:22:36;14.98;;;9.75;;
63112;SDS011;49206;48.020;21.378;2022-09-24T02:24:47;14.07;;;8.63;;
63112;SDS011;49206;48.020;21.378;2022-09-24T02:25:55;14.30;;;8.93;;
63112;SDS011;49206;48.020;21.378;2022-09-24T02:27:03;19.70;;;10.35;;
63112;SDS011;49206;48.020;21.378;2022-09-24T02:28:05;16.77;;;10.05;;
63112;SDS011;49206;48.020;21.378;2022-09-24T02:29:07;13.65;;;9.45;;
63112;SDS011;49206;48.020;21.378;2022-09-24T02:30:10;17.05;;;9.95;;
63112;SDS011;49206;48.020;21.378;2022-09-24T02:31:13;14.88;;;9.23;;
63112;SDS011;49206;48.020;21.378;2022-09-24T02:32:19;14.70;;;9.50;;
63112;SDS011;49206;48.020;21.378;2022-09-24T02:33:24;15.30;;;10.90;;
63112;SDS011;49206;48.020;21.378;2022-09-24T02:34:47;15.38;;;9.13;;
63112;SDS011;49206;48.020;21.378;2022-09-24T02:37:03;17.27;;;10.02;;
63112;SDS011;49206;48.020;21.378;2022-09-24T02:38:16;16.02;;;10.05;;
63112;SDS011;49206;48.020;21.378;2022-09-24T02:39:19;15.52;;;9.52;;
63112;SDS011;49206;48.020;21.378;2022-09-24T02:40:21;14.43;;;9.60;;
63112;SDS011;49206;48.020;21.378;2022-09-24T02:41:24;18.02;;;10.35;;
63112;SDS011;49206;48.020;21.378;2022-09-24T02:42:27;20.35;;;10.35;;
63112;SDS011;49206;48.020;21.378;2022-09-24T02:43:32;17.63;;;10.32;;
63112;SDS011;49206;48.020;21.378;2022-09-24T02:44:36;19.80;;;11.93;;
63112;SDS011;49206;48.020;21.378;2022-09-24T02:45:39;16.52;;;10.70;;
63112;SDS011;49206;48.020;21.378;2022-09-24T02:46:45;19.58;;;11.48;;
63112;SDS011;49206;48.020;21.378;2022-09-24T02:47:49;17.02;;;10.82;;
63112;SDS011;49206;48.020;21.378;2022-09-24T02:48:51;17.30;;;10.73;;
63112;SDS011;49206;48.020;21.378;2022-09-24T02:49:54;19.63;;;11.50;;
63112;SDS011;49206;48.020;21.378;2022-09-24T02:50:57;14.85;;;9.27;;
63112;SDS011;49206;48.020;21.378;2022-09-24T02:51:59;16.45;;;10.43;;
63112;SDS011;49206;48.020;21.378;2022-09-24T02:53:02;17.75;;;10.98;;
63112;SDS011;49206;48.020;21.378;2022-09-24T02:54:04;15.75;;;10.68;;
63112;SDS011;49206;48.020;21.378;2022-09-24T02:55:07;19.50;;;11.40;;
63112;SDS011;49206;48.020;21.378;2022-09-24T02:56:10;18.52;;;10.70;;
63112;SDS011;49206;48.020;21.378;2022-09-24T02:57:12;18.95;;;10.93;;
63112;SDS011;49206;48.020;21.378;2022-09-24T02:58:14;14.77;;;9.80;;
63112;SDS011;49206;48.020;21.378;2022-09-24T02:59:17;20.33;;;11.10;;
63112;SDS011;49206;48.020;21.378;2022-09-24T03:00:20;18.40;;;12.13;;
63112;SDS011;49206;48.020;21.378;2022-09-24T03:01:22;20.25;;;11.02;;
63112;SDS011;49206;48.020;21.378;2022-09-24T03:02:28;17.95;;;11.15;;
63112;SDS011;49206;48.020;21.378;2022-09-24T03:03:31;18.77;;;11.80;;
63112;SDS011;49206;48.020;21.378;2022-09-24T03:04:33;19.48;;;10.68;;
63112;SDS011;49206;48.020;21.378;2022-09-24T03:05:35;16.50;;;10.80;;
63112;SDS011;49206;48.020;21.378;2022-09-24T03:06:38;15.70;;;10.02;;
63112;SDS011;49206;48.020;21.378;2022-09-24T03:07:41;18.48;;;10.52;;
63112;SDS011;49206;48.020;21.378;2022-09-24T03:08:44;19.63;;;10.77;;
63112;SDS011;49206;48.020;21.378;2022-09-24T03:09:47;19.95;;;11.85;;
63112;SDS011;49206;48.020;21.378;2022-09-24T03:10:50;18.58;;;11.38;;
63112;SDS011;49206;48.020;21.378;2022-09-24T03:11:52;15.65;;;10.82;;
63112;SDS011;49206;48.020;21.378;2022-09-24T03:12:56;15.52;;;10.55;;
63112;SDS011;49206;48.020;21.378;2022-09-24T03:13:59;16.08;;;10.75;;
63112;SDS011;49206;48.020;21.378;2022-09-24T03:15:02;16.50;;;10.43;;
63112;SDS011;49206;48.020;21.378;2022-09-24T03:16:05;18.50;;;11.43;;
63112;SDS011;49206;48.020;21.378;2022-09-24T03:17:08;18.08;;;11.57;;
63112;SDS011;49206;48.020;21.378;2022-09-24T03:18:11;20.73;;;11.73;;
63112;SDS011;49206;48.020;21.378;2022-09-24T03:19:13;18.20;;;11.52;;
63112;SDS011;49206;48.020;21.378;2022-09-24T03:20:16;17.70;;;11.63;;
63112;SDS011;49206;48.020;21.378;2022-09-24T03:21:19;19.08;;;12.25;;
63112;SDS011;49206;48.020;21.378;2022-09-24T03:22:23;19.83;;;11.65;;
63112;SDS011;49206;48.020;21.378;2022-09-24T03:23:25;21.65;;;12.57;;
63112;SDS011;49206;48.020;21.378;2022-09-24T03:24:28;21.80;;;12.50;;
63112;SDS011;49206;48.020;21.378;2022-09-24T03:25:30;19.48;;;11.43;;
63112;SDS011;49206;48.020;21.378;2022-09-24T03:26:33;18.83;;;12.10;;
63112;SDS011;49206;48.020;21.378;2022-09-24T03:27:35;20.15;;;12.52;;
63112;SDS011;49206;48.020;21.378;2022-09-24T03:28:37;21.92;;;12.90;;
63112;SDS011;49206;48.020;21.378;2022-09-24T03:29:40;20.13;;;12.50;;
63112;SDS011;49206;48.020;21.378;2022-09-24T03:31:02;20.23;;;12.05;;
63112;SDS011;49206;48.020;21.378;2022-09-24T03:32:05;19.65;;;12.00;;
63112;SDS011;49206;48.020;21.378;2022-09-24T03:33:07;21.25;;;13.48;;
63112;SDS011;49206;48.020;21.378;2022-09-24T03:34:09;20.65;;;12.52;;
63112;SDS011;49206;48.020;21.378;2022-09-24T03:35:12;19.20;;;12.15;;
63112;SDS011;49206;48.020;21.378;2022-09-24T03:37:29;18.77;;;12.50;;
63112;SDS011;49206;48.020;21.378;2022-09-24T03:38:34;19.27;;;11.88;;
63112;SDS011;49206;48.020;21.378;2022-09-24T03:39:36;18.40;;;11.43;;
63112;SDS011;49206;48.020;21.378;2022-09-24T03:40:41;21.55;;;12.45;;
63112;SDS011;49206;48.020;21.378;2022-09-24T03:41:44;20.20;;;12.38;;
63112;SDS011;49206;48.020;21.378;2022-09-24T03:42:46;21.20;;;13.88;;
63112;SDS011;49206;48.020;21.378;2022-09-24T03:43:48;19.67;;;11.88;;
63112;SDS011;49206;48.020;21.378;2022-09-24T03:44:51;19.42;;;12.48;;
63112;SDS011;49206;48.020;21.378;2022-09-24T03:45:55;20.02;;;11.95;;
63112;SDS011;49206;48.020;21.378;2022-09-24T03:46:57;17.50;;;11.45;;
63112;SDS011;49206;48.020;21.378;2022-09-24T03:47:59;20.80;;;12.02;;
63112;SDS011;49206;48.020;21.378;2022-09-24T03:49:02;17.30;;;11.95;;
63112;SDS011;49206;48.020;21.378;2022-09-24T03:50:04;17.90;;;10.93;;
63112;SDS011;49206;48.020;21.378;2022-09-24T03:51:08;19.23;;;11.23;;
63112;SDS011;49206;48.020;21.378;2022-09-24T03:52:12;19.05;;;12.00;;
63112;SDS011;49206;48.020;21.378;2022-09-24T03:53:15;21.15;;;13.25;;
63112;SDS011;49206;48.020;21.378;2022-09-24T03:54:18;20.88;;;12.13;;
63112;SDS011;49206;48.020;21.378;2022-09-24T03:55:21;20.55;;;11.68;;
63112;SDS011;49206;48.020;21.378;2022-09-24T03:56:23;19.42;;;11.85;;
63112;SDS011;49206;48.020;21.378;2022-09-24T03:57:29;18.75;;;11.45;;
63112;SDS011;49206;48.020;21.378;2022-09-24T03:58:34;21.13;;;11.45;;
63112;SDS011;49206;48.020;21.378;2022-09-24T03:59:40;18.88;;;12.35;;
63112;SDS011;49206;48.020;21.378;2022-09-24T04:00:43;19.80;;;12.02;;
63112;SDS011;49206;48.020;21.378;2022-09-24T04:01:45;20.25;;;11.88;;
63112;SDS011;49206;48.020;21.378;2022-09-24T04:02:48;23.02;;;12.15;;
63112;SDS011;49206;48.020;21.378;2022-09-24T04:03:51;18.90;;;11.60;;
63112;SDS011;49206;48.020;21.378;2022-09-24T04:04:54;18.33;;;11.25;;
63112;SDS011;49206;48.020;21.378;2022-09-24T04:05:56;22.27;;;12.25;;
63112;SDS011;49206;48.020;21.378;2022-09-24T04:06:59;21.92;;;12.57;;
63112;SDS011;49206;48.020;21.378;2022-09-24T04:08:05;17.38;;;11.68;;
63112;SDS011;49206;48.020;21.378;2022-09-24T04:09:08;17.33;;;11.07;;
63112;SDS011;49206;48.020;21.378;2022-09-24T04:10:11;18.35;;;11.18;;
63112;SDS011;49206;48.020;21.378;2022-09-24T04:11:14;17.20;;;10.43;;
63112;SDS011;49206;48.020;21.378;2022-09-24T04:12:16;19.25;;;11.68;;
63112;SDS011;49206;48.020;21.378;2022-09-24T04:13:19;19.63;;;11.60;;
63112;SDS011;49206;48.020;21.378;2022-09-24T04:14:22;21.75;;;12.55;;
63112;SDS011;49206;48.020;21.378;2022-09-24T04:15:24;17.98;;;11.50;;
63112;SDS011;49206;48.020;21.378;2022-09-24T04:16:27;18.25;;;11.77;;
63112;SDS011;49206;48.020;21.378;2022-09-24T04:17:29;20.00;;;11.45;;
63112;SDS011;49206;48.020;21.378;2022-09-24T04:18:38;19.35;;;11.73;;
63112;SDS011;49206;48.020;21.378;2022-09-24T04:19:41;20.13;;;10.82;;
63112;SDS011;49206;48.020;21.378;2022-09-24T04:20:44;22.35;;;11.15;;
63112;SDS011;49206;48.020;21.378;2022-09-24T04:21:46;19.10;;;12.57;;
63112;SDS011;49206;48.020;21.378;2022-09-24T04:22:49;20.00;;;11.82;;
63112;SDS011;49206;48.020;21.378;2022-09-24T04:23:52;17.60;;;10.95;;
63112;SDS011;49206;48.020;21.378;2022-09-24T04:24:55;21.40;;;12.10;;
63112;SDS011;49206;48.020;21.378;2022-09-24T04:25:58;20.35;;;11.75;;
63112;SDS011;49206;48.020;21.378;2022-09-24T04:27:03;17.65;;;11.25;;
63112;SDS011;49206;48.020;21.378;2022-09-24T04:28:06;17.15;;;11.10;;
63112;SDS011;49206;48.020;21.378;2022-09-24T04:29:10;16.52;;;10.25;;
63112;SDS011;49206;48.020;21.378;2022-09-24T04:30:14;19.63;;;12.07;;
63112;SDS011;49206;48.020;21.378;2022-09-24T04:31:16;20.73;;;11.55;;
63112;SDS011;49206;48.020;21.378;2022-09-24T04:32:19;18.48;;;11.52;;
63112;SDS011;49206;48.020;21.378;2022-09-24T04:33:21;19.30;;;11.27;;
63112;SDS011;49206;48.020;21.378;2022-09-24T04:34:24;23.00;;;11.82;;
63112;SDS011;49206;48.020;21.378;2022-09-24T04:35:26;21.10;;;11.80;;
63112;SDS011;49206;48.020;21.378;2022-09-24T04:36:33;21.60;;;12.45;;
63112;SDS011;49206;48.020;21.378;2022-09-24T04:37:36;19.88;;;12.45;;
63112;SDS011;49206;48.020;21.378;2022-09-24T04:38:39;21.25;;;11.90;;
63112;SDS011;49206;48.020;21.378;2022-09-24T04:39:41;19.55;;;11.88;;
63112;SDS011;49206;48.020;21.378;2022-09-24T04:40:44;20.27;;;12.05;;
63112;SDS011;49206;48.020;21.378;2022-09-24T04:41:47;19.67;;;12.35;;
63112;SDS011;49206;48.020;21.378;2022-09-24T04:42:50;21.75;;;13.38;;
63112;SDS011;49206;48.020;21.378;2022-09-24T04:43:55;21.15;;;13.20;;
63112;SDS011;49206;48.020;21.378;2022-09-24T04:44:58;20.00;;;12.98;;
63112;SDS011;49206;48.020;21.378;2022-09-24T04:46:00;20.88;;;13.20;;
63112;SDS011;49206;48.020;21.378;2022-09-24T04:47:02;22.08;;;13.00;;
63112;SDS011;49206;48.020;21.378;2022-09-24T04:48:05;19.27;;;11.45;;
63112;SDS011;49206;48.020;21.378;2022-09-24T04:49:08;19.45;;;12.48;;
63112;SDS011;49206;48.020;21.378;2022-09-24T04:50:10;20.02;;;12.00;;
63112;SDS011;49206;48.020;21.378;2022-09-24T04:51:14;20.67;;;12.50;;
63112;SDS011;49206;48.020;21.378;2022-09-24T04:52:18;20.17;;;11.93;;
63112;SDS011;49206;48.020;21.378;2022-09-24T04:53:21;19.30;;;12.02;;
63112;SDS011;49206;48.020;21.378;2022-09-24T04:54:27;20.58;;;12.50;;
63112;SDS011;49206;48.020;21.378;2022-09-24T04:55:30;21.33;;;12.60;;
63112;SDS011;49206;48.020;21.378;2022-09-24T04:56:36;17.58;;;11.73;;
63112;SDS011;49206;48.020;21.378;2022-09-24T04:57:57;18.80;;;12.02;;
63112;SDS011;49206;48.020;21.378;2022-09-24T04:59:03;20.40;;;12.98;;
63112;SDS011;49206;48.020;21.378;2022-09-24T05:00:08;20.95;;;12.50;;
63112;SDS011;49206;48.020;21.378;2022-09-24T05:01:17;22.20;;;12.70;;
63112;SDS011;49206;48.020;21.378;2022-09-24T05:02:22;20.73;;;12.38;;
63112;SDS011;49206;48.020;21.378;2022-09-24T05:03:27;24.60;;;12.65;;
63112;SDS011;49206;48.020;21.378;2022-09-24T05:04:32;19.98;;;12.30;;
63112;SDS011;49206;48.020;21.378;2022-09-24T05:05:36;20.55;;;13.10;;
63112;SDS011;49206;48.020;21.378;2022-09-24T05:06:42;19.17;;;12.05;;
63112;SDS011;49206;48.020;21.378;2022-09-24T05:07:45;21.45;;;13.13;;
63112;SDS011;49206;48.020;21.378;2022-09-24T05:08:49;23.45;;;13.13;;
63112;SDS011;49206;48.020;21.378;2022-09-24T05:09:57;24.17;;;13.43;;
63112;SDS011;49206;48.020;21.378;2022-09-24T05:11:00;21.98;;;13.65;;
63112;SDS011;49206;48.020;21.378;2022-09-24T05:12:06;22.40;;;13.18;;
63112;SDS011;49206;48.020;21.378;2022-09-24T05:13:10;21.95;;;13.60;;
63112;SDS011;49206;48.020;21.378;2022-09-24T05:14:12;22.50;;;13.40;;
63112;SDS011;49206;48.020;21.378;2022-09-24T05:15:14;24.52;;;14.88;;
63112;SDS011;49206;48.020;21.378;2022-09-24T05:16:20;24.75;;;13.85;;
63112;SDS011;49206;48.020;21.378;2022-09-24T05:17:23;25.58;;;14.60;;
63112;SDS011;49206;48.020;21.378;2022-09-24T05:18:27;26.45;;;15.77;;
63112;SDS011;49206;48.020;21.378;2022-09-24T05:19:29;29.50;;;15.65;;
63112;SDS011;49206;48.020;21.378;2022-09-24T05:20:32;28.48;;;15.75;;
63112;SDS011;49206;48.020;21.378;2022-09-24T05:21:34;30.85;;;16.92;;
63112;SDS011;49206;48.020;21.378;2022-09-24T05:22:43;30.80;;;16.73;;
63112;SDS011;49206;48.020;21.378;2022-09-24T05:23:47;29.95;;;16.80;;
63112;SDS011;49206;48.020;21.378;2022-09-24T05:24:49;29.35;;;17.63;;
63112;SDS011;49206;48.020;21.378;2022-09-24T05:25:51;30.02;;;16.85;;
63112;SDS011;49206;48.020;21.378;2022-09-24T05:27:12;30.17;;;17.33;;
63112;SDS011;49206;48.020;21.378;2022-09-24T05:28:20;28.45;;;16.60;;
63112;SDS011;49206;48.020;21.378;2022-09-24T05:29:22;25.75;;;18.20;;
63112;SDS011;49206;48.020;21.378;2022-09-24T05:30:25;27.35;;;16.95;;
63112;SDS011;49206;48.020;21.378;2022-09-24T05:31:27;32.75;;;16.85;;
63112;SDS011;49206;48.020;21.378;2022-09-24T05:32:30;27.73;;;16.10;;
63112;SDS011;49206;48.020;21.378;2022-09-24T05:33:34;25.33;;;15.88;;
63112;SDS011;49206;48.020;21.378;2022-09-24T05:34:37;26.27;;;17.60;;
63112;SDS011;49206;48.020;21.378;2022-09-24T05:35:42;26.38;;;16.65;;
63112;SDS011;49206;48.020;21.378;2022-09-24T05:36:44;27.83;;;15.43;;
63112;SDS011;49206;48.020;21.378;2022-09-24T05:37:46;23.52;;;13.55;;
63112;SDS011;49206;48.020;21.378;2022-09-24T05:38:54;25.15;;;15.00;;
63112;SDS011;49206;48.020;21.378;2022-09-24T05:41:29;23.63;;;15.07;;
63112;SDS011;49206;48.020;21.378;2022-09-24T05:42:32;25.45;;;14.52;;
63112;SDS011;49206;48.020;21.378;2022-09-24T05:43:35;28.80;;;16.25;;
63112;SDS011;49206;48.020;21.378;2022-09-24T05:44:37;25.58;;;14.90;;
63112;SDS011;49206;48.020;21.378;2022-09-24T05:45:41;25.27;;;14.38;;
63112;SDS011;49206;48.020;21.378;2022-09-24T05:46:45;21.63;;;13.63;;
63112;SDS011;49206;48.020;21.378;2022-09-24T05:47:51;20.95;;;13.32;;
63112;SDS011;49206;48.020;21.378;2022-09-24T05:48:54;20.38;;;13.18;;
63112;SDS011;49206;48.020;21.378;2022-09-24T05:49:57;21.15;;;13.30;;
63112;SDS011;49206;48.020;21.378;2022-09-24T05:51:00;20.88;;;12.38;;
63112;SDS011;49206;48.020;21.378;2022-09-24T05:52:03;21.23;;;13.13;;
63112;SDS011;49206;48.020;21.378;2022-09-24T05:53:05;17.90;;;12.38;;
63112;SDS011;49206;48.020;21.378;2022-09-24T05:54:08;22.88;;;13.60;;
63112;SDS011;49206;48.020;21.378;2022-09-24T05:55:12;20.95;;;15.02;;
63112;SDS011;49206;48.020;21.378;2022-09-24T05:56:15;28.65;;;15.93;;
63112;SDS011;49206;48.020;21.378;2022-09-24T05:57:18;24.40;;;15.15;;
63112;SDS011;49206;48.020;21.378;2022-09-24T05:58:20;25.20;;;14.57;;
63112;SDS011;49206;48.020;21.378;2022-09-24T05:59:23;26.08;;;15.10;;
63112;SDS011;49206;48.020;21.378;2022-09-24T06:00:26;25.52;;;15.15;;
63112;SDS011;49206;48.020;21.378;2022-09-24T06:01:28;25.15;;;15.07;;
63112;SDS011;49206;48.020;21.378;2022-09-24T06:02:31;27.48;;;16.67;;
63112;SDS011;49206;48.020;21.378;2022-09-24T06:03:33;36.22;;;18.38;;
63112;SDS011;49206;48.020;21.378;2022-09-24T06:04:36;38.88;;;19.23;;
63112;SDS011;49206;48.020;21.378;2022-09-24T06:05:42;38.35;;;19.85;;
63112;SDS011;49206;48.020;21.378;2022-09-24T06:06:51;34.13;;;18.58;;
63112;SDS011;49206;48.020;21.378;2022-09-24T06:07:54;28.42;;;15.88;;
63112;SDS011;49206;48.020;21.378;2022-09-24T06:08:57;20.55;;;13.48;;
63112;SDS011;49206;48.020;21.378;2022-09-24T06:09:59;17.98;;;12.18;;
63112;SDS011;49206;48.020;21.378;2022-09-24T06:11:03;21.13;;;13.73;;
63112;SDS011;49206;48.020;21.378;2022-09-24T06:12:10;22.20;;;13.27;;
63112;SDS011;49206;48.020;21.378;2022-09-24T06:13:18;19.67;;;13.10;;
63112;SDS011;49206;48.020;21.378;2022-09-24T06:14:22;20.77;;;14.30;;
63112;SDS011;49206;48.020;21.378;2022-09-24T06:15:24;19.38;;;12.18;;
63112;SDS011;49206;48.020;21.378;2022-09-24T06:16:28;20.88;;;11.90;;
63112;SDS011;49206;48.020;21.378;2022-09-24T06:17:32;20.27;;;11.90;;
63112;SDS011;49206;48.020;21.378;2022-09-24T06:18:35;18.02;;;11.98;;
63112;SDS011;49206;48.020;21.378;2022-09-24T06:19:41;21.40;;;12.82;;
63112;SDS011;49206;48.020;21.378;2022-09-24T06:20:43;21.35;;;12.27;;
63112;SDS011;49206;48.020;21.378;2022-09-24T06:21:48;19.50;;;12.30;;
63112;SDS011;49206;48.020;21.378;2022-09-24T06:22:53;19.65;;;12.70;;
63112;SDS011;49206;48.020;21.378;2022-09-24T06:23:56;22.67;;;13.10;;
63112;SDS011;49206;48.020;21.378;2022-09-24T06:24:59;19.38;;;13.10;;
63112;SDS011;49206;48.020;21.378;2022-09-24T06:26:01;19.58;;;12.43;;
63112;SDS011;49206;48.020;21.378;2022-09-24T06:27:04;19.65;;;13.25;;
63112;SDS011;49206;48.020;21.378;2022-09-24T06:28:07;20.85;;;13.00;;
63112;SDS011;49206;48.020;21.378;2022-09-24T06:29:13;18.38;;;12.32;;
63112;SDS011;49206;48.020;21.378;2022-09-24T06:30:19;19.42;;;12.10;;
63112;SDS011;49206;48.020;21.378;2022-09-24T06:31:22;25.00;;;12.82;;
63112;SDS011;49206;48.020;21.378;2022-09-24T06:32:25;18.05;;;12.18;;
63112;SDS011;49206;48.020;21.378;2022-09-24T06:33:27;20.25;;;12.85;;
63112;SDS011;49206;48.020;21.378;2022-09-24T06:34:31;18.38;;;11.65;;
63112;SDS011;49206;48.020;21.378;2022-09-24T06:35:33;18.27;;;12.35;;
63112;SDS011;49206;48.020;21.378;2022-09-24T06:36:37;17.92;;;11.50;;
63112;SDS011;49206;48.020;21.378;2022-09-24T06:37:44;19.02;;;12.50;;